Trident Challenger — V7TY7 — position and weather

sailwx.info

Track history (hours):
 
Tides and Currents Weather Stations Pressure Air Temp Water Temp Dewpoint Dewpoint Depression Visibility Wind Speed Wind Dir Waves Ship Positions

Trident Challenger

Last reported at 2015-Feb-12 00:10 UTC. Time now 2015-Mar-28 23:55 UTC.
Position N 36°01' W 005°10'.
Warning: this ship's position is 44 days out of date.

Length 189 m; draft 12.1 m.

Type: Cargo ship. MMSI: 538003908.

Date/timePositionNaut miles runAvg speedWind from/ knotsBaromVisibWave heightAir tempDewpointWater temp
2015-Feb-12 00:10N 36°01' W 005°10'712.1
2015-Feb-11 23:34N 35°60' W 005°19'23810.3
2015-Feb-11 00:32N 37°40' W 009°49'1711.8
2015-Feb-10 23:05N 37°57' W 009°53'611.7
2015-Feb-10 22:33N 38°02' W 009°55'1311.9
2015-Feb-10 21:28N 38°15' W 009°59'1311.8
2015-Feb-10 20:22N 38°28' W 010°03'1011.7
2015-Feb-10 19:33N 38°37' W 010°06'1211.5
2015-Feb-10 18:33N 38°48' W 010°08'1611.1
2015-Feb-10 17:08N 39°03' W 010°13'  
2015-Feb-07 16:24N 50°06' W 002°15'2014.9
2015-Feb-07 15:04N 50°12' W 001°45'814.4
2015-Feb-07 14:32N 50°14' W 001°34'1812.8
2015-Feb-07 13:07N 50°19' W 001°07'28 9.5
2015-Feb-07 10:09N 50°26' W 000°24'6 9.8
2015-Feb-07 09:32N 50°28' W 000°15'1010.8
2015-Feb-07 08:33N 50°31' E 000°01'1212.1
2015-Feb-07 07:33N 50°34' E 000°20'1313.1
2015-Feb-07 06:33N 50°38' E 000°39'1313.4
2015-Feb-07 05:33N 50°46' E 000°56'1312.6
2015-Feb-07 04:33N 50°53' E 001°13'1111.3
2015-Feb-07 03:33N 51°01' E 001°26'1010.2
2015-Feb-07 02:33N 51°08' E 001°37'1010.0
2015-Feb-07 01:33N 51°16' E 001°48'1211.6
2015-Feb-07 00:33N 51°26' E 001°57'1313.3
2015-Feb-06 23:34N 51°36' E 002°10'1413.5
2015-Feb-06 22:33N 51°46' E 002°25'10912.1
2015-Feb-06 13:30N 53°09' E 004°22'1512.9
2015-Feb-06 12:20N 53°23' E 004°32'911.1
2015-Feb-06 11:33N 53°29' E 004°41'1211.8
2015-Feb-06 10:33N 53°34' E 004°60'1111.0
2015-Feb-06 09:33N 53°38' E 005°17'1110.7
2015-Feb-06 08:33N 53°41' E 005°34'1110.8
2015-Feb-06 07:33N 53°45' E 005°51'1211.7
2015-Feb-06 06:33N 53°48' E 006°10'4213.1
2015-Feb-06 03:21N 53°59' E 007°19'1012.8
2015-Feb-06 02:33N 54°01' E 007°36'1212.2
2015-Feb-06 01:33N 54°01' E 007°57'1211.4
2015-Feb-06 00:33N 53°60' E 008°16'10 9.8
2015-Feb-05 23:33N 53°58' E 008°32'7 7.4
2015-Feb-05 22:33N 53°54' E 008°42'9 9.3
2015-Feb-05 21:33N 53°51' E 008°57'1212.0
2015-Feb-05 20:33N 53°52' E 009°18'1312.6
2015-Feb-05 19:33N 53°42' E 009°30'1110.9
2015-Feb-05 18:33N 53°34' E 009°43'8 8.3
2015-Feb-05 17:33N 53°32' E 009°56'3 3.0
2015-Feb-05 16:32N 53°29' E 009°59'0 0.0
2015-Feb-05 15:32N 53°29' E 009°59'0 0.0
2015-Feb-05 14:32N 53°29' E 009°59'0 0.0
2015-Feb-05 13:32N 53°29' E 009°59'0 0.0
2015-Feb-05 12:32N 53°29' E 009°59'0 0.0
2015-Feb-05 11:32N 53°29' E 009°59'0 0.0
2015-Feb-05 10:32N 53°29' E 009°59'0 0.0
2015-Feb-05 09:32N 53°29' E 009°59'0 0.0
2015-Feb-05 08:32N 53°29' E 009°59'0 0.0
2015-Feb-05 07:32N 53°29' E 009°59'0 0.0
2015-Feb-05 06:32N 53°29' E 009°59'0 0.0
2015-Feb-05 05:32N 53°29' E 009°59'0 0.0
2015-Feb-05 04:32N 53°29' E 009°59'0 0.0
2015-Feb-05 03:32N 53°29' E 009°59'0 0.0
2015-Feb-05 02:29N 53°29' E 009°59'0 0.0
2015-Feb-05 01:32N 53°29' E 009°59'0 0.0
2015-Feb-05 00:29N 53°29' E 009°59'0 0.0
2015-Feb-04 23:29N 53°29' E 009°59'0 0.0
2015-Feb-04 22:32N 53°29' E 009°59'0 0.0
2015-Feb-04 21:32N 53°29' E 009°59'0 0.0
2015-Feb-04 20:32N 53°29' E 009°59'0 0.0
2015-Feb-04 19:32N 53°29' E 009°59'0 0.0
2015-Feb-04 18:32N 53°29' E 009°59'0 0.0
2015-Feb-04 17:32N 53°29' E 009°59'0 0.0
2015-Feb-04 16:32N 53°29' E 009°59'0 0.0
2015-Feb-04 15:32N 53°29' E 009°59'0 0.0
2015-Feb-04 14:32N 53°29' E 009°59'0 0.0
2015-Feb-04 13:32N 53°29' E 009°59'0 0.0
2015-Feb-04 12:32N 53°29' E 009°59'0 0.0
2015-Feb-04 11:32N 53°29' E 009°59'0 0.0
2015-Feb-04 10:29N 53°29' E 009°59'0 0.0
2015-Feb-04 09:32N 53°29' E 009°59'0 0.0
2015-Feb-04 08:32N 53°29' E 009°59'0 0.0
2015-Feb-04 07:32N 53°29' E 009°59'0 0.0
2015-Feb-04 06:32N 53°29' E 009°59'0 0.0
2015-Feb-04 05:32N 53°29' E 009°59'0 0.0
2015-Feb-04 04:32N 53°29' E 009°59'0 0.0
2015-Feb-04 03:32N 53°29' E 009°59'0 0.0
2015-Feb-04 02:32N 53°29' E 009°59'0 0.0
2015-Feb-04 01:29N 53°29' E 009°59'0 0.0
2015-Feb-04 00:32N 53°29' E 009°59'0 0.0
2015-Feb-03 23:32N 53°29' E 009°59'0 0.0
2015-Feb-03 22:29N 53°29' E 009°59'0 0.0
2015-Feb-03 21:32N 53°29' E 009°59'0 0.0
2015-Feb-03 20:32N 53°29' E 009°59'0 0.0
2015-Feb-03 19:32N 53°29' E 009°59'0 0.0
2015-Feb-03 18:32N 53°29' E 009°59'0 0.0
2015-Feb-03 17:32N 53°29' E 009°59'0 0.0
2015-Feb-03 16:29N 53°29' E 009°59'0 0.0
2015-Feb-03 15:32N 53°29' E 009°59'0 0.0
2015-Feb-03 14:32N 53°29' E 009°59'0 0.0
2015-Feb-03 13:32N 53°29' E 009°59'0 0.0
2015-Feb-03 12:29N 53°29' E 009°59'0 0.0
2015-Feb-03 11:32N 53°29' E 009°59'0 0.0
2015-Feb-03 10:32N 53°29' E 009°59'0 0.0
2015-Feb-03 09:32N 53°29' E 009°59'0 0.0
2015-Feb-03 08:32N 53°29' E 009°59'0 0.0
2015-Feb-03 07:32N 53°29' E 009°59'0 0.0
2015-Feb-03 06:29N 53°29' E 009°59'0 0.0
2015-Feb-03 05:32N 53°29' E 009°59'0 0.0
2015-Feb-03 04:32N 53°29' E 009°59'0 0.0
2015-Feb-03 03:32N 53°29' E 009°59'0 0.0
2015-Feb-03 02:32N 53°29' E 009°59'0 0.0
2015-Feb-03 01:32N 53°29' E 009°59'0 0.0
2015-Feb-03 00:32N 53°29' E 009°59'0 0.0
2015-Feb-02 23:32N 53°29' E 009°59'0 0.0
2015-Feb-02 22:32N 53°29' E 009°59'0 0.0
2015-Feb-02 21:32N 53°29' E 009°59'0 0.0
2015-Feb-02 20:29N 53°29' E 009°59'0 0.0
2015-Feb-02 19:32N 53°29' E 009°59'0 0.0
2015-Feb-02 18:32N 53°29' E 009°59'0 0.0
2015-Feb-02 17:32N 53°29' E 009°59'0 0.0
2015-Feb-02 16:32N 53°29' E 009°59'0 0.0
2015-Feb-02 15:32N 53°29' E 009°59'0 0.0
2015-Feb-02 14:32N 53°29' E 009°59'0 0.0
2015-Feb-02 13:32N 53°29' E 009°59'0 0.0
2015-Feb-02 12:32N 53°29' E 009°59'0 0.0
2015-Feb-02 11:32N 53°29' E 009°59'0 0.0
2015-Feb-02 10:32N 53°29' E 009°59'0 0.0
2015-Feb-02 09:32N 53°29' E 009°59'0 0.0
2015-Feb-02 08:32N 53°29' E 009°59'0 0.0
2015-Feb-02 07:32N 53°29' E 009°59'0 0.0
2015-Feb-02 06:32N 53°29' E 009°59'0 0.0
2015-Feb-02 05:32N 53°29' E 009°59'0 0.0
2015-Feb-02 04:32N 53°29' E 009°59'0 0.0
2015-Feb-02 03:32N 53°29' E 009°59'0 0.0
2015-Feb-02 02:32N 53°29' E 009°59'0 0.0
2015-Feb-02 01:32N 53°29' E 009°59'1 1.3
2015-Feb-02 00:33N 53°30' E 009°58'  
Track history (hours):
 
Tides and Currents Weather Stations Pressure Air Temp Water Temp Dewpoint Dewpoint Depression Visibility Wind Speed Wind Dir Waves Ship Positions

Trident Challenger

Last reported at 2015-Feb-12 00:10 UTC. Time now 2015-Mar-28 23:55 UTC.
Position N 36°01' W 005°10'.
Warning: this ship's position is 44 days out of date.

Length 189 m; draft 12.1 m.

Type: Cargo ship. MMSI: 538003908.

Date/timePositionNaut miles runAvg speedWind from/ knotsBaromVisibWave heightAir tempDewpointWater temp
2015-Feb-12 00:10N 36°01' W 005°10'712.1
2015-Feb-11 23:34N 35°60' W 005°19'23810.3
2015-Feb-11 00:32N 37°40' W 009°49'1711.8
2015-Feb-10 23:05N 37°57' W 009°53'611.7
2015-Feb-10 22:33N 38°02' W 009°55'1311.9
2015-Feb-10 21:28N 38°15' W 009°59'1311.8
2015-Feb-10 20:22N 38°28' W 010°03'1011.7
2015-Feb-10 19:33N 38°37' W 010°06'1211.5
2015-Feb-10 18:33N 38°48' W 010°08'1611.1
2015-Feb-10 17:08N 39°03' W 010°13'  
2015-Feb-07 16:24N 50°06' W 002°15'2014.9
2015-Feb-07 15:04N 50°12' W 001°45'814.4
2015-Feb-07 14:32N 50°14' W 001°34'1812.8
2015-Feb-07 13:07N 50°19' W 001°07'28 9.5
2015-Feb-07 10:09N 50°26' W 000°24'6 9.8
2015-Feb-07 09:32N 50°28' W 000°15'1010.8
2015-Feb-07 08:33N 50°31' E 000°01'1212.1
2015-Feb-07 07:33N 50°34' E 000°20'1313.1
2015-Feb-07 06:33N 50°38' E 000°39'1313.4
2015-Feb-07 05:33N 50°46' E 000°56'1312.6
2015-Feb-07 04:33N 50°53' E 001°13'1111.3
2015-Feb-07 03:33N 51°01' E 001°26'1010.2
2015-Feb-07 02:33N 51°08' E 001°37'1010.0
2015-Feb-07 01:33N 51°16' E 001°48'1211.6
2015-Feb-07 00:33N 51°26' E 001°57'1313.3
2015-Feb-06 23:34N 51°36' E 002°10'1413.5
2015-Feb-06 22:33N 51°46' E 002°25'10912.1
2015-Feb-06 13:30N 53°09' E 004°22'1512.9
2015-Feb-06 12:20N 53°23' E 004°32'911.1
2015-Feb-06 11:33N 53°29' E 004°41'1211.8
2015-Feb-06 10:33N 53°34' E 004°60'1111.0
2015-Feb-06 09:33N 53°38' E 005°17'1110.7
2015-Feb-06 08:33N 53°41' E 005°34'1110.8
2015-Feb-06 07:33N 53°45' E 005°51'1211.7
2015-Feb-06 06:33N 53°48' E 006°10'4213.1
2015-Feb-06 03:21N 53°59' E 007°19'1012.8
2015-Feb-06 02:33N 54°01' E 007°36'1212.2
2015-Feb-06 01:33N 54°01' E 007°57'1211.4
2015-Feb-06 00:33N 53°60' E 008°16'10 9.8
2015-Feb-05 23:33N 53°58' E 008°32'7 7.4
2015-Feb-05 22:33N 53°54' E 008°42'9 9.3
2015-Feb-05 21:33N 53°51' E 008°57'1212.0
2015-Feb-05 20:33N 53°52' E 009°18'1312.6
2015-Feb-05 19:33N 53°42' E 009°30'1110.9
2015-Feb-05 18:33N 53°34' E 009°43'8 8.3
2015-Feb-05 17:33N 53°32' E 009°56'3 3.0
2015-Feb-05 16:32N 53°29' E 009°59'0 0.0
2015-Feb-05 15:32N 53°29' E 009°59'0 0.0
2015-Feb-05 14:32N 53°29' E 009°59'0 0.0
2015-Feb-05 13:32N 53°29' E 009°59'0 0.0
2015-Feb-05 12:32N 53°29' E 009°59'0 0.0
2015-Feb-05 11:32N 53°29' E 009°59'0 0.0
2015-Feb-05 10:32N 53°29' E 009°59'0 0.0
2015-Feb-05 09:32N 53°29' E 009°59'0 0.0
2015-Feb-05 08:32N 53°29' E 009°59'0 0.0
2015-Feb-05 07:32N 53°29' E 009°59'0 0.0
2015-Feb-05 06:32N 53°29' E 009°59'0 0.0
2015-Feb-05 05:32N 53°29' E 009°59'0 0.0
2015-Feb-05 04:32N 53°29' E 009°59'0 0.0
2015-Feb-05 03:32N 53°29' E 009°59'0 0.0
2015-Feb-05 02:29N 53°29' E 009°59'0 0.0
2015-Feb-05 01:32N 53°29' E 009°59'0 0.0
2015-Feb-05 00:29N 53°29' E 009°59'0 0.0
2015-Feb-04 23:29N 53°29' E 009°59'0 0.0
2015-Feb-04 22:32N 53°29' E 009°59'0 0.0
2015-Feb-04 21:32N 53°29' E 009°59'0 0.0
2015-Feb-04 20:32N 53°29' E 009°59'0 0.0
2015-Feb-04 19:32N 53°29' E 009°59'0 0.0
2015-Feb-04 18:32N 53°29' E 009°59'0 0.0
2015-Feb-04 17:32N 53°29' E 009°59'0 0.0
2015-Feb-04 16:32N 53°29' E 009°59'0 0.0
2015-Feb-04 15:32N 53°29' E 009°59'0 0.0
2015-Feb-04 14:32N 53°29' E 009°59'0 0.0
2015-Feb-04 13:32N 53°29' E 009°59'0 0.0
2015-Feb-04 12:32N 53°29' E 009°59'0 0.0
2015-Feb-04 11:32N 53°29' E 009°59'0 0.0
2015-Feb-04 10:29N 53°29' E 009°59'0 0.0
2015-Feb-04 09:32N 53°29' E 009°59'0 0.0
2015-Feb-04 08:32N 53°29' E 009°59'0 0.0
2015-Feb-04 07:32N 53°29' E 009°59'0 0.0
2015-Feb-04 06:32N 53°29' E 009°59'0 0.0
2015-Feb-04 05:32N 53°29' E 009°59'0 0.0
2015-Feb-04 04:32N 53°29' E 009°59'0 0.0
2015-Feb-04 03:32N 53°29' E 009°59'0 0.0
2015-Feb-04 02:32N 53°29' E 009°59'0 0.0
2015-Feb-04 01:29N 53°29' E 009°59'0 0.0
2015-Feb-04 00:32N 53°29' E 009°59'0 0.0
2015-Feb-03 23:32N 53°29' E 009°59'0 0.0
2015-Feb-03 22:29N 53°29' E 009°59'0 0.0
2015-Feb-03 21:32N 53°29' E 009°59'0 0.0
2015-Feb-03 20:32N 53°29' E 009°59'0 0.0
2015-Feb-03 19:32N 53°29' E 009°59'0 0.0
2015-Feb-03 18:32N 53°29' E 009°59'0 0.0
2015-Feb-03 17:32N 53°29' E 009°59'0 0.0
2015-Feb-03 16:29N 53°29' E 009°59'0 0.0
2015-Feb-03 15:32N 53°29' E 009°59'0 0.0
2015-Feb-03 14:32N 53°29' E 009°59'0 0.0
2015-Feb-03 13:32N 53°29' E 009°59'0 0.0
2015-Feb-03 12:29N 53°29' E 009°59'0 0.0
2015-Feb-03 11:32N 53°29' E 009°59'0 0.0
2015-Feb-03 10:32N 53°29' E 009°59'0 0.0
2015-Feb-03 09:32N 53°29' E 009°59'0 0.0
2015-Feb-03 08:32N 53°29' E 009°59'0 0.0
2015-Feb-03 07:32N 53°29' E 009°59'0 0.0
2015-Feb-03 06:29N 53°29' E 009°59'0 0.0
2015-Feb-03 05:32N 53°29' E 009°59'0 0.0
2015-Feb-03 04:32N 53°29' E 009°59'0 0.0
2015-Feb-03 03:32N 53°29' E 009°59'0 0.0
2015-Feb-03 02:32N 53°29' E 009°59'0 0.0
2015-Feb-03 01:32N 53°29' E 009°59'0 0.0
2015-Feb-03 00:32N 53°29' E 009°59'0 0.0
2015-Feb-02 23:32N 53°29' E 009°59'0 0.0
2015-Feb-02 22:32N 53°29' E 009°59'0 0.0
2015-Feb-02 21:32N 53°29' E 009°59'0 0.0
2015-Feb-02 20:29N 53°29' E 009°59'0 0.0
2015-Feb-02 19:32N 53°29' E 009°59'0 0.0
2015-Feb-02 18:32N 53°29' E 009°59'0 0.0
2015-Feb-02 17:32N 53°29' E 009°59'0 0.0
2015-Feb-02 16:32N 53°29' E 009°59'0 0.0
2015-Feb-02 15:32N 53°29' E 009°59'0 0.0
2015-Feb-02 14:32N 53°29' E 009°59'0 0.0
2015-Feb-02 13:32N 53°29' E 009°59'0 0.0
2015-Feb-02 12:32N 53°29' E 009°59'0 0.0
2015-Feb-02 11:32N 53°29' E 009°59'0 0.0
2015-Feb-02 10:32N 53°29' E 009°59'0 0.0
2015-Feb-02 09:32N 53°29' E 009°59'0 0.0
2015-Feb-02 08:32N 53°29' E 009°59'0 0.0
2015-Feb-02 07:32N 53°29' E 009°59'0 0.0
2015-Feb-02 06:32N 53°29' E 009°59'0 0.0
2015-Feb-02 05:32N 53°29' E 009°59'0 0.0
2015-Feb-02 04:32N 53°29' E 009°59'0 0.0
2015-Feb-02 03:32N 53°29' E 009°59'0 0.0
2015-Feb-02 02:32N 53°29' E 009°59'0 0.0
2015-Feb-02 01:32N 53°29' E 009°59'1 1.3
2015-Feb-02 00:33N 53°30' E 009°58'  

Dump ship's entire track history